Rockford, IA

5:04 AM CDT on September 22, 2014 (GMT -0500)
Austin Municipal | Change Station
CLOSE
Current Station
Airport
Location: Austin,
Elevation: 1230 ft
Nearby Weather Stations

Elev 1230 ft 43.67 °N, 92.93 °W | Updated 9 minutes ago

Clear
Clear
43 °F
Feels Like 43 °F
N
0
Wind Variable Wind from North

Today
High -- | Low -- °F
--% Chance of Precip.
Yesterday
High -- | Low -- °F
Precip. -- in
6:59 AM 7:09 PM
Waning Crescent, 3% visible
Pressure 30.25 in
Visibility 1.0 miles
Clouds Mostly Cloudy 100 ft
Dew Point 41 °F
Humidity 93%
Rainfall 0.00 in
Snow Depth Not available.
UV 0 out of 12
Pollen 4.30 out of 12
Air Quality Not available.
Flu Activity Not available.
METAR KAUM 220955Z AUTO 00000KT 1SM BR BKN001 06/05 A3025 RMK AO2 VIS 1/2V5

More Conditions Fewer Conditions

Pressure 30.25 in
Visibility 1.0 miles
Clouds Mostly Cloudy 100 ft
Dew Point 41 °F
Humidity 93%
Rainfall 0.00 in
Snow Depth Not available.
UV 0 out of 12
Pollen 4.30 out of 12
Air Quality Not available.
Flu Activity Not available.
METAR KAUM 220955Z AUTO 00000KT 1SM BR BKN001 06/05 A3025 RMK AO2 VIS 1/2V5

More Conditions Fewer Conditions

10-Day Weather Forecast

Almanac

Astronomy

Sep. 22, 2014 Rise Set
Actual Time 6:59 AM CDT 7:09 PM CDT
Civil Twilight 6:30 AM CDT 7:37 PM CDT
Nautical Twilight 5:57 AM CDT 8:10 PM CDT
Astronomical Twilight 5:23 AM CDT 8:44 PM CDT
Moon 5:26 AM CDT 6:17 PM CDT
Length of Visible Light 13h 06m
Length of Day
12h 09m
Tomorrow will be 2m 55s shorter.
Waning Crescent, 3% of the Moon is Illuminated
Today
Waning Crescent
Sep 24
New
Oct 1
First Quarter
Oct 8
Full
Oct 15
Last Quarter

Today's Extremes

State Highs State Lows

Community

WunderPhotos

Upload Photos

1,755,403 photos uploaded!

Nearby

Snow Depth

Station Depth Elevation
No new snow has been reported.

Earthquake Activity

City Distance Mag. Time & Date
No recent earthquake activity has been reported nearby.
Minimum magnitude displayed is 2.5.

Coastal Water Temperatures

Place Temperature
No Stations Reporting

Nearby Weather Stations